sensor_id;sensor_type;location;lat;lon;timestamp;pressure;altitude;pressure_sealevel;temperature
20289;BMP180;10303;51.960;8.372;2023-03-20T00:01:55;100699.00;;;12.50
20289;BMP180;10303;51.960;8.372;2023-03-20T00:04:21;100708.00;;;12.50
20289;BMP180;10303;51.960;8.372;2023-03-20T00:06:47;100698.00;;;12.40
20289;BMP180;10303;51.960;8.372;2023-03-20T00:09:13;100707.00;;;12.40
20289;BMP180;10303;51.960;8.372;2023-03-20T00:11:48;100712.00;;;12.30
20289;BMP180;10303;51.960;8.372;2023-03-20T00:14:19;100711.00;;;12.30
20289;BMP180;10303;51.960;8.372;2023-03-20T00:16:48;100712.00;;;12.30
20289;BMP180;10303;51.960;8.372;2023-03-20T00:19:19;100714.00;;;12.30
20289;BMP180;10303;51.960;8.372;2023-03-20T00:21:46;100718.00;;;12.30
20289;BMP180;10303;51.960;8.372;2023-03-20T00:24:14;100724.00;;;12.20
20289;BMP180;10303;51.960;8.372;2023-03-20T00:26:42;100709.00;;;12.20
20289;BMP180;10303;51.960;8.372;2023-03-20T00:29:21;100724.00;;;12.20
20289;BMP180;10303;51.960;8.372;2023-03-20T00:31:48;100701.00;;;12.20
20289;BMP180;10303;51.960;8.372;2023-03-20T00:34:18;100708.00;;;12.10
20289;BMP180;10303;51.960;8.372;2023-03-20T00:36:45;100707.00;;;12.10
20289;BMP180;10303;51.960;8.372;2023-03-20T00:39:12;100708.00;;;12.10
20289;BMP180;10303;51.960;8.372;2023-03-20T00:46:58;100699.00;;;12.00
20289;BMP180;10303;51.960;8.372;2023-03-20T00:49:33;100691.00;;;12.00
20289;BMP180;10303;51.960;8.372;2023-03-20T00:52:00;100694.00;;;12.00
20289;BMP180;10303;51.960;8.372;2023-03-20T00:54:28;100689.00;;;12.00
20289;BMP180;10303;51.960;8.372;2023-03-20T00:56:57;100693.00;;;12.00
20289;BMP180;10303;51.960;8.372;2023-03-20T00:59:29;100689.00;;;12.00
20289;BMP180;10303;51.960;8.372;2023-03-20T01:01:57;100690.00;;;12.00
20289;BMP180;10303;51.960;8.372;2023-03-20T01:04:33;100700.00;;;12.00
20289;BMP180;10303;51.960;8.372;2023-03-20T01:07:00;100712.00;;;12.00
20289;BMP180;10303;51.960;8.372;2023-03-20T01:09:26;100717.00;;;12.00
20289;BMP180;10303;51.960;8.372;2023-03-20T01:11:52;100714.00;;;11.90
20289;BMP180;10303;51.960;8.372;2023-03-20T01:14:18;100715.00;;;11.90
20289;BMP180;10303;51.960;8.372;2023-03-20T01:16:44;100705.00;;;11.90
20289;BMP180;10303;51.960;8.372;2023-03-20T01:19:14;100716.00;;;11.90
20289;BMP180;10303;51.960;8.372;2023-03-20T01:21:41;100707.00;;;11.90
20289;BMP180;10303;51.960;8.372;2023-03-20T01:24:08;100706.00;;;11.90
20289;BMP180;10303;51.960;8.372;2023-03-20T01:26:38;100702.00;;;11.90
20289;BMP180;10303;51.960;8.372;2023-03-20T01:29:20;100709.00;;;11.90
20289;BMP180;10303;51.960;8.372;2023-03-20T01:31:49;100708.00;;;12.00
20289;BMP180;10303;51.960;8.372;2023-03-20T01:34:17;100707.00;;;12.00
20289;BMP180;10303;51.960;8.372;2023-03-20T01:36:53;100701.00;;;12.00
20289;BMP180;10303;51.960;8.372;2023-03-20T01:39:21;100697.00;;;12.00
20289;BMP180;10303;51.960;8.372;2023-03-20T01:41:52;100715.00;;;12.00
20289;BMP180;10303;51.960;8.372;2023-03-20T01:44:31;100716.00;;;12.00
20289;BMP180;10303;51.960;8.372;2023-03-20T01:47:01;100718.00;;;12.10
20289;BMP180;10303;51.960;8.372;2023-03-20T01:51:56;100727.00;;;12.10
20289;BMP180;10303;51.960;8.372;2023-03-20T01:54:34;100731.00;;;12.10
20289;BMP180;10303;51.960;8.372;2023-03-20T01:57:17;100739.00;;;12.20
20289;BMP180;10303;51.960;8.372;2023-03-20T01:59:55;100752.00;;;12.20
20289;BMP180;10303;51.960;8.372;2023-03-20T02:02:28;100744.00;;;12.20
20289;BMP180;10303;51.960;8.372;2023-03-20T02:05:07;100750.00;;;12.20
20289;BMP180;10303;51.960;8.372;2023-03-20T02:07:37;100747.00;;;12.20
20289;BMP180;10303;51.960;8.372;2023-03-20T02:10:11;100742.00;;;12.20
20289;BMP180;10303;51.960;8.372;2023-03-20T02:12:48;100743.00;;;12.30
20289;BMP180;10303;51.960;8.372;2023-03-20T02:15:26;100751.00;;;12.30
20289;BMP180;10303;51.960;8.372;2023-03-20T02:18:13;100753.00;;;12.20
20289;BMP180;10303;51.960;8.372;2023-03-20T02:41:41;100727.00;;;12.30
20289;BMP180;10303;51.960;8.372;2023-03-20T02:45:02;100723.00;;;12.30
20289;BMP180;10303;51.960;8.372;2023-03-20T02:47:40;100725.00;;;12.30
20289;BMP180;10303;51.960;8.372;2023-03-20T02:53:50;100731.00;;;12.30
20289;BMP180;10303;51.960;8.372;2023-03-20T02:56:16;100732.00;;;12.30
20289;BMP180;10303;51.960;8.372;2023-03-20T03:02:07;100734.00;;;12.20
20289;BMP180;10303;51.960;8.372;2023-03-20T03:04:41;100737.00;;;12.20
20289;BMP180;10303;51.960;8.372;2023-03-20T03:07:12;100735.00;;;12.20
20289;BMP180;10303;51.960;8.372;2023-03-20T03:10:10;100732.00;;;12.10
20289;BMP180;10303;51.960;8.372;2023-03-20T03:12:42;100737.00;;;12.10
20289;BMP180;10303;51.960;8.372;2023-03-20T03:15:19;100740.00;;;12.20
20289;BMP180;10303;51.960;8.372;2023-03-20T03:17:48;100745.00;;;12.20
20289;BMP180;10303;51.960;8.372;2023-03-20T03:20:29;100754.00;;;12.20
20289;BMP180;10303;51.960;8.372;2023-03-20T03:22:56;100746.00;;;12.20
20289;BMP180;10303;51.960;8.372;2023-03-20T03:25:26;100736.00;;;12.10
20289;BMP180;10303;51.960;8.372;2023-03-20T03:30:43;100741.00;;;12.10
20289;BMP180;10303;51.960;8.372;2023-03-20T03:33:24;100745.00;;;12.10
20289;BMP180;10303;51.960;8.372;2023-03-20T03:36:00;100745.00;;;12.10
20289;BMP180;10303;51.960;8.372;2023-03-20T03:38:45;100758.00;;;12.00
20289;BMP180;10303;51.960;8.372;2023-03-20T03:41:51;100755.00;;;11.80
20289;BMP180;10303;51.960;8.372;2023-03-20T03:44:44;100740.00;;;11.80
20289;BMP180;10303;51.960;8.372;2023-03-20T03:47:33;100740.00;;;11.70
20289;BMP180;10303;51.960;8.372;2023-03-20T03:50:24;100738.00;;;11.70
20289;BMP180;10303;51.960;8.372;2023-03-20T03:53:01;100743.00;;;11.70
20289;BMP180;10303;51.960;8.372;2023-03-20T03:55:37;100747.00;;;11.80
20289;BMP180;10303;51.960;8.372;2023-03-20T03:58:36;100740.00;;;11.80
20289;BMP180;10303;51.960;8.372;2023-03-20T04:01:06;100724.00;;;11.90
20289;BMP180;10303;51.960;8.372;2023-03-20T04:03:39;100721.00;;;11.90
20289;BMP180;10303;51.960;8.372;2023-03-20T04:06:10;100717.00;;;12.00
20289;BMP180;10303;51.960;8.372;2023-03-20T04:08:39;100722.00;;;12.00
20289;BMP180;10303;51.960;8.372;2023-03-20T04:11:17;100720.00;;;12.00
20289;BMP180;10303;51.960;8.372;2023-03-20T04:13:46;100714.00;;;12.00
20289;BMP180;10303;51.960;8.372;2023-03-20T04:16:15;100712.00;;;12.10
20289;BMP180;10303;51.960;8.372;2023-03-20T04:18:44;100704.00;;;12.10
20289;BMP180;10303;51.960;8.372;2023-03-20T04:21:13;100704.00;;;12.10
20289;BMP180;10303;51.960;8.372;2023-03-20T04:23:41;100712.00;;;12.10
20289;BMP180;10303;51.960;8.372;2023-03-20T04:26:08;100711.00;;;12.10
20289;BMP180;10303;51.960;8.372;2023-03-20T04:28:34;100714.00;;;12.10
20289;BMP180;10303;51.960;8.372;2023-03-20T04:31:21;100711.00;;;12.10
20289;BMP180;10303;51.960;8.372;2023-03-20T04:34:07;100710.00;;;12.10
20289;BMP180;10303;51.960;8.372;2023-03-20T04:36:44;100713.00;;;12.10
20289;BMP180;10303;51.960;8.372;2023-03-20T04:39:13;100707.00;;;12.10
20289;BMP180;10303;51.960;8.372;2023-03-20T04:41:39;100696.00;;;12.20
20289;BMP180;10303;51.960;8.372;2023-03-20T04:44:06;100691.00;;;12.20
20289;BMP180;10303;51.960;8.372;2023-03-20T04:46:34;100698.00;;;12.20
20289;BMP180;10303;51.960;8.372;2023-03-20T04:49:02;100693.00;;;12.20
20289;BMP180;10303;51.960;8.372;2023-03-20T04:51:29;100696.00;;;12.20
20289;BMP180;10303;51.960;8.372;2023-03-20T04:53:58;100712.00;;;12.20
20289;BMP180;10303;51.960;8.372;2023-03-20T04:56:24;100703.00;;;12.20
20289;BMP180;10303;51.960;8.372;2023-03-20T04:58:52;100705.00;;;12.20
20289;BMP180;10303;51.960;8.372;2023-03-20T05:01:20;100709.00;;;12.20
20289;BMP180;10303;51.960;8.372;2023-03-20T05:03:46;100708.00;;;12.20
20289;BMP180;10303;51.960;8.372;2023-03-20T05:06:12;100692.00;;;12.20
20289;BMP180;10303;51.960;8.372;2023-03-20T05:08:41;100706.00;;;12.20
20289;BMP180;10303;51.960;8.372;2023-03-20T05:11:07;100708.00;;;12.20
20289;BMP180;10303;51.960;8.372;2023-03-20T05:13:53;100704.00;;;12.20
20289;BMP180;10303;51.960;8.372;2023-03-20T05:16:48;100705.00;;;12.20
20289;BMP180;10303;51.960;8.372;2023-03-20T05:19:32;100708.00;;;12.20
20289;BMP180;10303;51.960;8.372;2023-03-20T05:22:12;100715.00;;;12.20
20289;BMP180;10303;51.960;8.372;2023-03-20T05:25:05;100714.00;;;12.20
20289;BMP180;10303;51.960;8.372;2023-03-20T05:27:57;100716.00;;;12.20
20289;BMP180;10303;51.960;8.372;2023-03-20T05:30:49;100712.00;;;12.20
20289;BMP180;10303;51.960;8.372;2023-03-20T05:33:34;100724.00;;;12.20
20289;BMP180;10303;51.960;8.372;2023-03-20T05:36:23;100717.00;;;12.20
20289;BMP180;10303;51.960;8.372;2023-03-20T05:38:56;100723.00;;;12.10
20289;BMP180;10303;51.960;8.372;2023-03-20T05:41:45;100733.00;;;12.10
20289;BMP180;10303;51.960;8.372;2023-03-20T05:44:40;100726.00;;;12.10
20289;BMP180;10303;51.960;8.372;2023-03-20T05:47:25;100727.00;;;12.10
20289;BMP180;10303;51.960;8.372;2023-03-20T05:50:02;100729.00;;;12.10
20289;BMP180;10303;51.960;8.372;2023-03-20T05:52:49;100730.00;;;12.10
20289;BMP180;10303;51.960;8.372;2023-03-20T05:55:27;100718.00;;;12.10
20289;BMP180;10303;51.960;8.372;2023-03-20T05:58:22;100719.00;;;12.10
20289;BMP180;10303;51.960;8.372;2023-03-20T06:01:22;100719.00;;;12.10
20289;BMP180;10303;51.960;8.372;2023-03-20T06:04:03;100721.00;;;12.10
20289;BMP180;10303;51.960;8.372;2023-03-20T06:06:55;100714.00;;;12.10
20289;BMP180;10303;51.960;8.372;2023-03-20T06:09:22;100721.00;;;12.10
20289;BMP180;10303;51.960;8.372;2023-03-20T06:11:48;100737.00;;;12.10
20289;BMP180;10303;51.960;8.372;2023-03-20T06:14:16;100730.00;;;12.10
20289;BMP180;10303;51.960;8.372;2023-03-20T06:16:45;100734.00;;;12.10
20289;BMP180;10303;51.960;8.372;2023-03-20T06:19:12;100732.00;;;12.10
20289;BMP180;10303;51.960;8.372;2023-03-20T06:21:40;100727.00;;;12.20
20289;BMP180;10303;51.960;8.372;2023-03-20T06:24:09;100735.00;;;12.20
20289;BMP180;10303;51.960;8.372;2023-03-20T06:26:35;100734.00;;;12.20
20289;BMP180;10303;51.960;8.372;2023-03-20T06:29:06;100728.00;;;12.20
20289;BMP180;10303;51.960;8.372;2023-03-20T06:31:33;100728.00;;;12.20
20289;BMP180;10303;51.960;8.372;2023-03-20T06:34:00;100722.00;;;12.20
20289;BMP180;10303;51.960;8.372;2023-03-20T06:36:28;100722.00;;;12.20
20289;BMP180;10303;51.960;8.372;2023-03-20T06:39:00;100735.00;;;12.20
20289;BMP180;10303;51.960;8.372;2023-03-20T06:41:27;100733.00;;;12.20
20289;BMP180;10303;51.960;8.372;2023-03-20T06:43:53;100736.00;;;12.20
20289;BMP180;10303;51.960;8.372;2023-03-20T06:46:22;100736.00;;;12.20
20289;BMP180;10303;51.960;8.372;2023-03-20T06:48:48;100746.00;;;12.30
20289;BMP180;10303;51.960;8.372;2023-03-20T06:51:14;100744.00;;;12.30
20289;BMP180;10303;51.960;8.372;2023-03-20T06:53:49;100738.00;;;12.20
20289;BMP180;10303;51.960;8.372;2023-03-20T06:56:19;100745.00;;;12.20
20289;BMP180;10303;51.960;8.372;2023-03-20T06:58:45;100749.00;;;12.20
20289;BMP180;10303;51.960;8.372;2023-03-20T07:01:13;100759.00;;;12.30
20289;BMP180;10303;51.960;8.372;2023-03-20T07:03:42;100765.00;;;12.20
20289;BMP180;10303;51.960;8.372;2023-03-20T07:06:09;100761.00;;;12.20
20289;BMP180;10303;51.960;8.372;2023-03-20T07:08:38;100760.00;;;12.20
20289;BMP180;10303;51.960;8.372;2023-03-20T07:11:05;100750.00;;;12.20
20289;BMP180;10303;51.960;8.372;2023-03-20T07:13:31;100774.00;;;12.10
20289;BMP180;10303;51.960;8.372;2023-03-20T07:16:04;100767.00;;;12.10
20289;BMP180;10303;51.960;8.372;2023-03-20T07:18:34;100765.00;;;12.10
20289;BMP180;10303;51.960;8.372;2023-03-20T07:21:03;100771.00;;;12.10
20289;BMP180;10303;51.960;8.372;2023-03-20T07:23:32;100775.00;;;12.10
20289;BMP180;10303;51.960;8.372;2023-03-20T07:25:59;100763.00;;;12.10
20289;BMP180;10303;51.960;8.372;2023-03-20T07:28:25;100767.00;;;12.20
20289;BMP180;10303;51.960;8.372;2023-03-20T07:31:04;100780.00;;;12.20
20289;BMP180;10303;51.960;8.372;2023-03-20T07:33:32;100780.00;;;12.30
20289;BMP180;10303;51.960;8.372;2023-03-20T07:35:58;100787.00;;;12.20
20289;BMP180;10303;51.960;8.372;2023-03-20T07:38:24;100780.00;;;12.30
20289;BMP180;10303;51.960;8.372;2023-03-20T07:41:03;100780.00;;;12.30
20289;BMP180;10303;51.960;8.372;2023-03-20T07:43:30;100784.00;;;12.20
20289;BMP180;10303;51.960;8.372;2023-03-20T07:46:28;100786.00;;;12.20
20289;BMP180;10303;51.960;8.372;2023-03-20T07:48:54;100790.00;;;12.20
20289;BMP180;10303;51.960;8.372;2023-03-20T07:51:23;100790.00;;;12.30
20289;BMP180;10303;51.960;8.372;2023-03-20T07:53:50;100789.00;;;12.30
20289;BMP180;10303;51.960;8.372;2023-03-20T07:56:16;100792.00;;;12.20
20289;BMP180;10303;51.960;8.372;2023-03-20T07:58:41;100790.00;;;12.20
20289;BMP180;10303;51.960;8.372;2023-03-20T08:01:07;100790.00;;;12.20
20289;BMP180;10303;51.960;8.372;2023-03-20T08:03:33;100798.00;;;12.10
20289;BMP180;10303;51.960;8.372;2023-03-20T08:05:59;100800.00;;;12.10
20289;BMP180;10303;51.960;8.372;2023-03-20T08:08:26;100795.00;;;12.10
20289;BMP180;10303;51.960;8.372;2023-03-20T08:10:52;100787.00;;;12.10
20289;BMP180;10303;51.960;8.372;2023-03-20T08:13:18;100797.00;;;12.20
20289;BMP180;10303;51.960;8.372;2023-03-20T08:15:45;100802.00;;;12.00
20289;BMP180;10303;51.960;8.372;2023-03-20T08:18:11;100797.00;;;11.70
20289;BMP180;10303;51.960;8.372;2023-03-20T08:20:37;100799.00;;;11.80
20289;BMP180;10303;51.960;8.372;2023-03-20T08:23:03;100808.00;;;11.90
20289;BMP180;10303;51.960;8.372;2023-03-20T08:25:29;100785.00;;;11.80
20289;BMP180;10303;51.960;8.372;2023-03-20T08:27:59;100802.00;;;11.80
20289;BMP180;10303;51.960;8.372;2023-03-20T08:30:26;100798.00;;;11.90
20289;BMP180;10303;51.960;8.372;2023-03-20T08:32:52;100791.00;;;12.00
20289;BMP180;10303;51.960;8.372;2023-03-20T08:35:18;100803.00;;;11.80
20289;BMP180;10303;51.960;8.372;2023-03-20T08:37:44;100799.00;;;11.90
20289;BMP180;10303;51.960;8.372;2023-03-20T08:40:10;100808.00;;;11.90
20289;BMP180;10303;51.960;8.372;2023-03-20T08:42:36;100812.00;;;11.90
20289;BMP180;10303;51.960;8.372;2023-03-20T08:45:03;100807.00;;;12.00
20289;BMP180;10303;51.960;8.372;2023-03-20T08:47:29;100809.00;;;12.10
20289;BMP180;10303;51.960;8.372;2023-03-20T08:49:55;100805.00;;;12.10
20289;BMP180;10303;51.960;8.372;2023-03-20T08:52:21;100798.00;;;12.20
20289;BMP180;10303;51.960;8.372;2023-03-20T08:54:46;100806.00;;;12.10
20289;BMP180;10303;51.960;8.372;2023-03-20T08:57:12;100811.00;;;12.10
20289;BMP180;10303;51.960;8.372;2023-03-20T08:59:38;100812.00;;;12.20
20289;BMP180;10303;51.960;8.372;2023-03-20T09:02:05;100807.00;;;12.30
20289;BMP180;10303;51.960;8.372;2023-03-20T09:04:31;100804.00;;;12.30
20289;BMP180;10303;51.960;8.372;2023-03-20T09:06:57;100814.00;;;12.40
20289;BMP180;10303;51.960;8.372;2023-03-20T09:09:25;100801.00;;;12.40
20289;BMP180;10303;51.960;8.372;2023-03-20T09:11:58;100811.00;;;12.40
20289;BMP180;10303;51.960;8.372;2023-03-20T09:14:25;100802.00;;;12.50
20289;BMP180;10303;51.960;8.372;2023-03-20T09:16:52;100818.00;;;12.50
20289;BMP180;10303;51.960;8.372;2023-03-20T09:19:18;100811.00;;;12.40
20289;BMP180;10303;51.960;8.372;2023-03-20T09:21:45;100813.00;;;12.40
20289;BMP180;10303;51.960;8.372;2023-03-20T09:24:11;100823.00;;;12.40
20289;BMP180;10303;51.960;8.372;2023-03-20T09:26:38;100812.00;;;12.50
20289;BMP180;10303;51.960;8.372;2023-03-20T09:29:05;100825.00;;;12.50
20289;BMP180;10303;51.960;8.372;2023-03-20T09:31:31;100809.00;;;12.50
20289;BMP180;10303;51.960;8.372;2023-03-20T09:33:57;100817.00;;;12.40
20289;BMP180;10303;51.960;8.372;2023-03-20T09:36:23;100821.00;;;12.40
20289;BMP180;10303;51.960;8.372;2023-03-20T09:38:48;100815.00;;;12.40
20289;BMP180;10303;51.960;8.372;2023-03-20T09:41:24;100820.00;;;12.30
20289;BMP180;10303;51.960;8.372;2023-03-20T09:44:09;100819.00;;;12.10
20289;BMP180;10303;51.960;8.372;2023-03-20T09:50:02;100818.00;;;12.10
20289;BMP180;10303;51.960;8.372;2023-03-20T09:52:52;100828.00;;;12.00
20289;BMP180;10303;51.960;8.372;2023-03-20T09:55:29;100822.00;;;12.10
20289;BMP180;10303;51.960;8.372;2023-03-20T09:58:02;100832.00;;;12.00
20289;BMP180;10303;51.960;8.372;2023-03-20T10:00:33;100832.00;;;12.10
20289;BMP180;10303;51.960;8.372;2023-03-20T10:03:20;100827.00;;;12.10
20289;BMP180;10303;51.960;8.372;2023-03-20T10:05:57;100832.00;;;12.10
20289;BMP180;10303;51.960;8.372;2023-03-20T10:08:35;100826.00;;;12.10
20289;BMP180;10303;51.960;8.372;2023-03-20T10:11:29;100821.00;;;12.30
20289;BMP180;10303;51.960;8.372;2023-03-20T10:14:38;100818.00;;;12.20
20289;BMP180;10303;51.960;8.372;2023-03-20T10:23:26;100826.00;;;12.30
20289;BMP180;10303;51.960;8.372;2023-03-20T10:26:16;100820.00;;;12.40
20289;BMP180;10303;51.960;8.372;2023-03-20T10:29:05;100827.00;;;12.60
20289;BMP180;10303;51.960;8.372;2023-03-20T10:32:00;100819.00;;;12.60
20289;BMP180;10303;51.960;8.372;2023-03-20T10:40:30;100802.00;;;12.60
20289;BMP180;10303;51.960;8.372;2023-03-20T10:43:07;100802.00;;;12.60
20289;BMP180;10303;51.960;8.372;2023-03-20T10:45:42;100806.00;;;12.60
20289;BMP180;10303;51.960;8.372;2023-03-20T10:48:43;100789.00;;;12.80
20289;BMP180;10303;51.960;8.372;2023-03-20T10:51:21;100785.00;;;13.00
20289;BMP180;10303;51.960;8.372;2023-03-20T10:54:02;100783.00;;;13.10
20289;BMP180;10303;51.960;8.372;2023-03-20T10:56:37;100778.00;;;13.10
20289;BMP180;10303;51.960;8.372;2023-03-20T10:59:27;100793.00;;;13.10
20289;BMP180;10303;51.960;8.372;2023-03-20T11:01:53;100770.00;;;13.30
20289;BMP180;10303;51.960;8.372;2023-03-20T11:04:20;100778.00;;;13.40
20289;BMP180;10303;51.960;8.372;2023-03-20T11:07:04;100780.00;;;13.50
20289;BMP180;10303;51.960;8.372;2023-03-20T11:09:31;100767.00;;;13.40
20289;BMP180;10303;51.960;8.372;2023-03-20T11:12:00;100766.00;;;13.40
20289;BMP180;10303;51.960;8.372;2023-03-20T11:14:38;100763.00;;;13.40
20289;BMP180;10303;51.960;8.372;2023-03-20T11:17:05;100769.00;;;13.50
20289;BMP180;10303;51.960;8.372;2023-03-20T11:19:37;100780.00;;;13.50
20289;BMP180;10303;51.960;8.372;2023-03-20T11:22:22;100771.00;;;13.50
20289;BMP180;10303;51.960;8.372;2023-03-20T11:24:59;100776.00;;;13.60
20289;BMP180;10303;51.960;8.372;2023-03-20T11:27:32;100770.00;;;13.60
20289;BMP180;10303;51.960;8.372;2023-03-20T11:30:06;100771.00;;;13.60
20289;BMP180;10303;51.960;8.372;2023-03-20T11:32:46;100764.00;;;13.70
20289;BMP180;10303;51.960;8.372;2023-03-20T11:35:27;100760.00;;;13.40
20289;BMP180;10303;51.960;8.372;2023-03-20T11:38:19;100760.00;;;13.50
20289;BMP180;10303;51.960;8.372;2023-03-20T11:40:46;100753.00;;;13.40
20289;BMP180;10303;51.960;8.372;2023-03-20T11:43:21;100748.00;;;13.30
20289;BMP180;10303;51.960;8.372;2023-03-20T11:45:55;100759.00;;;13.40
20289;BMP180;10303;51.960;8.372;2023-03-20T11:48:43;100753.00;;;13.50
20289;BMP180;10303;51.960;8.372;2023-03-20T11:51:19;100753.00;;;13.40
20289;BMP180;10303;51.960;8.372;2023-03-20T11:56:30;100755.00;;;13.30
20289;BMP180;10303;51.960;8.372;2023-03-20T12:01:46;100756.00;;;13.50
20289;BMP180;10303;51.960;8.372;2023-03-20T12:04:19;100756.00;;;13.50
20289;BMP180;10303;51.960;8.372;2023-03-20T12:06:55;100741.00;;;13.70
20289;BMP180;10303;51.960;8.372;2023-03-20T12:09:53;100739.00;;;13.40
20289;BMP180;10303;51.960;8.372;2023-03-20T12:15:27;100742.00;;;13.30
20289;BMP180;10303;51.960;8.372;2023-03-20T12:21:16;100737.00;;;13.60
20289;BMP180;10303;51.960;8.372;2023-03-20T12:24:15;100738.00;;;13.70
20289;BMP180;10303;51.960;8.372;2023-03-20T12:27:14;100730.00;;;13.80
20289;BMP180;10303;51.960;8.372;2023-03-20T12:29:59;100751.00;;;13.70
20289;BMP180;10303;51.960;8.372;2023-03-20T12:32:59;100745.00;;;13.80
20289;BMP180;10303;51.960;8.372;2023-03-20T12:35:39;100748.00;;;13.90
20289;BMP180;10303;51.960;8.372;2023-03-20T12:38:30;100741.00;;;14.00
20289;BMP180;10303;51.960;8.372;2023-03-20T12:41:23;100732.00;;;13.90
20289;BMP180;10303;51.960;8.372;2023-03-20T12:44:14;100736.00;;;13.70
20289;BMP180;10303;51.960;8.372;2023-03-20T12:47:01;100739.00;;;13.40
20289;BMP180;10303;51.960;8.372;2023-03-20T12:49:56;100737.00;;;13.10
20289;BMP180;10303;51.960;8.372;2023-03-20T12:56:02;100737.00;;;13.10
20289;BMP180;10303;51.960;8.372;2023-03-20T12:58:44;100741.00;;;13.00
20289;BMP180;10303;51.960;8.372;2023-03-20T13:01:43;100730.00;;;13.10
20289;BMP180;10303;51.960;8.372;2023-03-20T13:04:46;100733.00;;;13.30
20289;BMP180;10303;51.960;8.372;2023-03-20T13:12:51;100729.00;;;13.40
20289;BMP180;10303;51.960;8.372;2023-03-20T13:16:11;100735.00;;;13.50
20289;BMP180;10303;51.960;8.372;2023-03-20T13:21:26;100735.00;;;13.40
20289;BMP180;10303;51.960;8.372;2023-03-20T13:27:18;100728.00;;;13.40
20289;BMP180;10303;51.960;8.372;2023-03-20T13:33:25;100733.00;;;13.20
20289;BMP180;10303;51.960;8.372;2023-03-20T13:39:06;100720.00;;;12.80
20289;BMP180;10303;51.960;8.372;2023-03-20T13:41:35;100719.00;;;13.00
20289;BMP180;10303;51.960;8.372;2023-03-20T13:44:04;100719.00;;;12.90
20289;BMP180;10303;51.960;8.372;2023-03-20T13:46:54;100727.00;;;12.90
20289;BMP180;10303;51.960;8.372;2023-03-20T13:49:34;100715.00;;;13.00
20289;BMP180;10303;51.960;8.372;2023-03-20T13:52:24;100713.00;;;13.00
20289;BMP180;10303;51.960;8.372;2023-03-20T14:00:48;100708.00;;;13.20
20289;BMP180;10303;51.960;8.372;2023-03-20T14:03:34;100712.00;;;13.20
20289;BMP180;10303;51.960;8.372;2023-03-20T14:06:42;100717.00;;;13.20
20289;BMP180;10303;51.960;8.372;2023-03-20T14:09:31;100709.00;;;13.30
20289;BMP180;10303;51.960;8.372;2023-03-20T14:12:08;100704.00;;;13.30
20289;BMP180;10303;51.960;8.372;2023-03-20T14:14:55;100707.00;;;13.30
20289;BMP180;10303;51.960;8.372;2023-03-20T14:17:25;100707.00;;;13.40
20289;BMP180;10303;51.960;8.372;2023-03-20T14:19:53;100715.00;;;13.40
20289;BMP180;10303;51.960;8.372;2023-03-20T14:22:29;100711.00;;;13.40
20289;BMP180;10303;51.960;8.372;2023-03-20T14:25:05;100719.00;;;13.40
20289;BMP180;10303;51.960;8.372;2023-03-20T14:27:59;100721.00;;;13.40
20289;BMP180;10303;51.960;8.372;2023-03-20T14:33:27;100717.00;;;13.40
20289;BMP180;10303;51.960;8.372;2023-03-20T14:36:26;100721.00;;;13.30
20289;BMP180;10303;51.960;8.372;2023-03-20T14:39:02;100706.00;;;13.00
20289;BMP180;10303;51.960;8.372;2023-03-20T14:41:47;100719.00;;;12.90
20289;BMP180;10303;51.960;8.372;2023-03-20T14:45:12;100704.00;;;13.10
20289;BMP180;10303;51.960;8.372;2023-03-20T14:48:04;100719.00;;;13.00
20289;BMP180;10303;51.960;8.372;2023-03-20T14:50:48;100707.00;;;13.00
20289;BMP180;10303;51.960;8.372;2023-03-20T14:53:21;100721.00;;;13.00
20289;BMP180;10303;51.960;8.372;2023-03-20T15:06:32;100703.00;;;12.70
20289;BMP180;10303;51.960;8.372;2023-03-20T15:09:08;100697.00;;;12.70
20289;BMP180;10303;51.960;8.372;2023-03-20T15:11:36;100702.00;;;12.80
20289;BMP180;10303;51.960;8.372;2023-03-20T15:14:06;100694.00;;;12.90
20289;BMP180;10303;51.960;8.372;2023-03-20T15:16:35;100699.00;;;12.90
20289;BMP180;10303;51.960;8.372;2023-03-20T15:19:16;100701.00;;;12.90
20289;BMP180;10303;51.960;8.372;2023-03-20T15:21:45;100691.00;;;12.90
20289;BMP180;10303;51.960;8.372;2023-03-20T15:24:28;100689.00;;;12.90
20289;BMP180;10303;51.960;8.372;2023-03-20T15:26:58;100686.00;;;13.00
20289;BMP180;10303;51.960;8.372;2023-03-20T15:29:26;100691.00;;;13.00
20289;BMP180;10303;51.960;8.372;2023-03-20T15:31:58;100687.00;;;13.00
20289;BMP180;10303;51.960;8.372;2023-03-20T15:34:29;100690.00;;;13.00
20289;BMP180;10303;51.960;8.372;2023-03-20T15:36:59;100693.00;;;13.00
20289;BMP180;10303;51.960;8.372;2023-03-20T15:39:29;100691.00;;;13.00
20289;BMP180;10303;51.960;8.372;2023-03-20T15:42:13;100686.00;;;13.00
20289;BMP180;10303;51.960;8.372;2023-03-20T15:44:42;100693.00;;;13.00
20289;BMP180;10303;51.960;8.372;2023-03-20T15:49:39;100681.00;;;13.00
20289;BMP180;10303;51.960;8.372;2023-03-20T15:54:53;100669.00;;;13.00
20289;BMP180;10303;51.960;8.372;2023-03-20T15:57:35;100668.00;;;12.90
20289;BMP180;10303;51.960;8.372;2023-03-20T16:00:41;100675.00;;;12.90
20289;BMP180;10303;51.960;8.372;2023-03-20T16:03:14;100668.00;;;12.90
20289;BMP180;10303;51.960;8.372;2023-03-20T16:05:47;100674.00;;;12.90
20289;BMP180;10303;51.960;8.372;2023-03-20T16:08:22;100667.00;;;12.80
20289;BMP180;10303;51.960;8.372;2023-03-20T16:10:48;100660.00;;;12.90
20289;BMP180;10303;51.960;8.372;2023-03-20T16:13:19;100662.00;;;12.90
20289;BMP180;10303;51.960;8.372;2023-03-20T16:15:48;100673.00;;;12.90
20289;BMP180;10303;51.960;8.372;2023-03-20T16:18:16;100671.00;;;12.80
20289;BMP180;10303;51.960;8.372;2023-03-20T16:20:57;100663.00;;;12.80
20289;BMP180;10303;51.960;8.372;2023-03-20T16:23:43;100663.00;;;12.80
20289;BMP180;10303;51.960;8.372;2023-03-20T16:26:20;100659.00;;;12.80
20289;BMP180;10303;51.960;8.372;2023-03-20T16:28:53;100663.00;;;12.80
20289;BMP180;10303;51.960;8.372;2023-03-20T16:31:29;100659.00;;;12.80
20289;BMP180;10303;51.960;8.372;2023-03-20T16:34:04;100656.00;;;12.80